ティラナ の空港の天気 - METARとTAF

ティラナ・リナ空港 ( LATI / TIA ) - アルバニア ティラナ
飛行場実況気象(Metar)
観測時間04/24 17:50 CEST (04/24 15:50 UTC)
風向・風速北北西 3m/s
視程10km以上
天気現象
なし
気温24℃
湿度36%
気圧1019hPa
METARLATI 241550Z 33006KT CAVOK 24/08 Q1019 NOSIG
過去の天気等 Google飛行場航空写真 Wunderground天気予報

過去48時間のMETAR

飛行場予報(TAF)
発表時間: 4/24 13:00 CEST (4/24 11:00 UTC)
予報対象時間: 24日14時 CEST ~ 25日14時 CEST
風向・風速北北西 6m/s
視程10km以上
なし
24日20時 CEST ~ 24日22時 CEST に徐々に
風向・風速不定 2m/s
TAF LATI 241100Z 2412/2512 34012KT CAVOK TX27/2412Z TN12/2504Z
BECMG 2418/2420 VRB04KT